Time;durP1;ratioP1;P1;durP2;ratioP2;P2;SDS_P1;SDS_P2;PMS_P1;PMS_P2;Temp;Humidity;BMP_temperature;BMP_pressure;BME280_temperature;BME280_humidity;BME280_pressure;Samples;Min_cycle;Max_cycle;Signal;HPM_P1;HPM_P2
2023/12/29 00:01:39;;;;;;;17.83;16.58;;;9.20;99.90;;;;;;5030476;28;20045;-75
2023/12/29 00:04:06;;;;;;;17.02;15.75;;;9.20;99.90;;;;;;5023391;28;20547;-76
2023/12/29 00:06:33;;;;;;;16.98;15.57;;;9.30;99.90;;;;;;5025045;28;20041;-76
2023/12/29 00:09:06;;;;;;;17.73;16.52;;;9.30;99.90;;;;;;5034220;28;20052;-76
2023/12/29 00:11:33;;;;;;;17.80;16.38;;;9.30;99.90;;;;;;5025893;28;20053;-76
2023/12/29 00:13:59;;;;;;;18.73;16.75;;;9.20;99.90;;;;;;5027985;28;21553;-77
2023/12/29 00:16:29;;;;;;;16.83;15.82;;;9.30;99.90;;;;;;5034840;28;20037;-75
2023/12/29 00:18:56;;;;;;;16.50;15.25;;;9.30;99.90;;;;;;5024771;28;20057;-76
2023/12/29 00:21:23;;;;;;;17.30;16.17;;;9.30;99.90;;;;;;5025505;28;20037;-76
2023/12/29 00:23:50;;;;;;;17.10;16.10;;;9.40;99.90;;;;;;5027832;28;20589;-76
2023/12/29 00:26:17;;;;;;;16.70;15.63;;;9.30;99.90;;;;;;5026493;28;20044;-76
2023/12/29 00:28:53;;;;;;;16.58;15.65;;;9.30;99.90;;;;;;5030917;28;20118;-77
2023/12/29 00:31:20;;;;;;;17.50;16.27;;;9.30;99.90;;;;;;5059109;28;20061;-75
2023/12/29 00:33:46;;;;;;;17.20;15.82;;;9.30;99.90;;;;;;5028359;28;20069;-76
2023/12/29 00:36:18;;;;;;;17.88;16.38;;;9.30;99.90;;;;;;5025648;28;20033;-77
2023/12/29 00:38:45;;;;;;;16.58;15.32;;;9.30;99.90;;;;;;5025938;28;21759;-75
2023/12/29 00:41:12;;;;;;;16.75;15.73;;;9.30;99.90;;;;;;5030316;28;20037;-76
2023/12/29 00:43:39;;;;;;;16.95;15.70;;;9.40;99.90;;;;;;5021974;28;20052;-76
2023/12/29 00:46:06;;;;;;;16.55;15.55;;;9.40;99.90;;;;;;5016106;28;20052;-76
2023/12/29 00:48:34;;;;;;;16.85;15.60;;;9.40;99.90;;;;;;5032177;28;20106;-75
2023/12/29 00:51:02;;;;;;;16.13;15.13;;;9.40;99.90;;;;;;5032680;28;20045;-76
2023/12/29 00:53:31;;;;;;;16.33;15.05;;;9.50;99.90;;;;;;5025029;28;20140;-75
2023/12/29 00:55:59;;;;;;;16.55;15.00;;;9.50;99.90;;;;;;5022237;28;20041;-77
2023/12/29 00:58:26;;;;;;;16.27;15.25;;;9.50;99.90;;;;;;5015760;28;20525;-76
2023/12/29 01:00:53;;;;;;;17.73;16.30;;;9.50;99.90;;;;;;5013854;28;20040;-76
2023/12/29 01:03:20;;;;;;;17.08;16.00;;;9.50;99.90;;;;;;5021443;28;20127;-76
2023/12/29 01:05:50;;;;;;;16.80;15.48;;;9.50;99.90;;;;;;5032011;28;20041;-76
2023/12/29 01:08:17;;;;;;;16.83;15.63;;;9.50;99.90;;;;;;5034462;28;20408;-76
2023/12/29 01:10:44;;;;;;;16.95;15.65;;;9.50;99.90;;;;;;5029553;28;20047;-76
2023/12/29 01:13:11;;;;;;;15.82;14.77;;;9.50;99.90;;;;;;5019648;28;20519;-76
2023/12/29 01:15:40;;;;;;;19.17;17.25;;;9.50;99.90;;;;;;5024398;28;20061;-76
2023/12/29 01:18:07;;;;;;;16.73;15.32;;;9.50;99.90;;;;;;5030034;28;20106;-77
2023/12/29 01:20:34;;;;;;;15.85;14.75;;;9.50;99.90;;;;;;5027899;28;20033;-75
2023/12/29 01:23:00;;;;;;;16.13;15.10;;;9.50;99.90;;;;;;5018943;28;20661;-76
2023/12/29 01:25:27;;;;;;;16.23;15.18;;;9.50;99.90;;;;;;5026623;28;20045;-76
2023/12/29 01:27:54;;;;;;;15.48;14.43;;;9.50;99.90;;;;;;5026284;28;20029;-76
2023/12/29 01:30:21;;;;;;;16.60;15.38;;;9.50;99.90;;;;;;5013066;28;20107;-76
2023/12/29 01:32:48;;;;;;;15.60;14.70;;;9.60;99.90;;;;;;5024504;28;20045;-76
2023/12/29 01:35:15;;;;;;;17.15;15.70;;;9.60;99.90;;;;;;5027963;28;20041;-75
2023/12/29 01:37:45;;;;;;;16.10;14.85;;;9.60;99.90;;;;;;5029557;28;20053;-76
2023/12/29 01:40:12;;;;;;;16.85;15.73;;;9.60;99.90;;;;;;5055825;28;20037;-76
2023/12/29 01:42:40;;;;;;;16.42;15.10;;;9.70;99.90;;;;;;5021784;28;20048;-76
2023/12/29 01:45:21;;;;;;;15.32;14.40;;;9.70;99.90;;;;;;5029221;28;20145;-76
2023/12/29 01:47:49;;;;;;;15.98;14.85;;;9.70;99.90;;;;;;5033986;28;20053;-75
2023/12/29 01:50:17;;;;;;;19.02;15.15;;;9.60;99.90;;;;;;5047202;28;20044;-74
2023/12/29 01:52:49;;;;;;;16.20;15.00;;;9.60;99.90;;;;;;5066635;28;20049;-76
2023/12/29 01:55:19;;;;;;;16.77;15.20;;;9.60;99.90;;;;;;5064091;28;20067;-76
2023/12/29 01:57:47;;;;;;;16.33;15.13;;;9.60;99.90;;;;;;5038446;28;20563;-76
2023/12/29 02:00:16;;;;;;;16.10;14.90;;;9.60;99.90;;;;;;5032127;28;20068;-77
2023/12/29 02:02:46;;;;;;;16.27;14.95;;;9.60;99.90;;;;;;5030679;28;20060;-76
2023/12/29 02:05:15;;;;;;;14.82;13.90;;;9.70;99.90;;;;;;4994713;28;20048;-75
2023/12/29 02:07:43;;;;;;;15.38;14.27;;;9.70;99.90;;;;;;5003537;28;20057;-76
2023/12/29 02:10:15;;;;;;;15.75;14.75;;;9.70;99.90;;;;;;5026768;28;20060;-76
2023/12/29 02:12:42;;;;;;;16.00;14.73;;;9.70;99.90;;;;;;4999037;28;20172;-76
2023/12/29 02:15:09;;;;;;;16.63;15.00;;;9.70;99.90;;;;;;5027136;28;21506;-76
2023/12/29 02:17:45;;;;;;;15.77;14.73;;;9.70;99.90;;;;;;5025765;28;20051;-76
2023/12/29 02:20:12;;;;;;;15.30;14.40;;;9.80;99.90;;;;;;5021629;28;20072;-76
2023/12/29 02:22:39;;;;;;;15.15;14.15;;;9.80;99.90;;;;;;5025795;28;20060;-77
2023/12/29 02:25:06;;;;;;;15.85;14.38;;;9.80;99.90;;;;;;5028471;28;20059;-77
2023/12/29 02:27:51;;;;;;;15.05;14.10;;;9.80;99.90;;;;;;5032812;28;20061;-76
2023/12/29 02:30:40;;;;;;;14.73;13.75;;;9.70;99.90;;;;;;5034987;28;20531;-76
2023/12/29 02:33:10;;;;;;;14.68;13.80;;;9.70;99.90;;;;;;5031855;28;20045;-76
2023/12/29 02:35:43;;;;;;;14.98;13.93;;;9.70;99.90;;;;;;5034974;28;20064;-76
2023/12/29 02:38:11;;;;;;;14.15;13.45;;;9.60;99.90;;;;;;5036618;28;20056;-76
2023/12/29 02:40:38;;;;;;;15.00;13.75;;;9.60;99.90;;;;;;5031857;28;20041;-76
2023/12/29 02:43:05;;;;;;;14.65;13.60;;;9.60;99.90;;;;;;5027195;28;20045;-75
2023/12/29 02:45:32;;;;;;;14.20;13.25;;;9.60;99.90;;;;;;5016230;28;20049;-75
2023/12/29 02:47:59;;;;;;;14.27;13.32;;;9.60;99.90;;;;;;5054804;28;20044;-76
2023/12/29 02:50:27;;;;;;;14.20;13.40;;;9.60;99.90;;;;;;5036476;28;20053;-76
2023/12/29 02:52:55;;;;;;;14.93;13.63;;;9.70;99.90;;;;;;5034201;28;20529;-75
2023/12/29 02:55:21;;;;;;;14.02;13.32;;;9.70;99.90;;;;;;5032200;28;20114;-76
2023/12/29 02:57:48;;;;;;;14.60;13.50;;;9.70;99.90;;;;;;5034751;28;20060;-75
2023/12/29 03:00:15;;;;;;;16.50;15.15;;;9.70;99.90;;;;;;5031675;28;20056;-76
2023/12/29 03:02:43;;;;;;;14.82;13.50;;;9.70;99.90;;;;;;5017550;28;20052;-75
2023/12/29 03:05:10;;;;;;;14.10;13.07;;;9.60;99.90;;;;;;5025637;28;20122;-75
2023/12/29 03:07:37;;;;;;;13.80;12.82;;;9.60;99.90;;;;;;5026398;28;20111;-75
2023/12/29 03:10:04;;;;;;;12.88;11.40;;;9.50;99.90;;;;;;5029717;28;20057;-75
2023/12/29 03:12:31;;;;;;;11.82;10.40;;;9.30;99.90;;;;;;5026750;28;20519;-76
2023/12/29 03:14:58;;;;;;;10.02;9.15;;;9.20;99.90;;;;;;5027798;28;20044;-76
2023/12/29 03:17:25;;;;;;;10.13;9.15;;;9.10;99.90;;;;;;5032498;28;20045;-75
2023/12/29 03:19:53;;;;;;;9.70;8.93;;;9.00;99.90;;;;;;5033523;28;20048;-73
2023/12/29 03:22:21;;;;;;;9.02;8.43;;;9.00;99.90;;;;;;5024248;28;20057;-73
2023/12/29 03:24:48;;;;;;;10.45;8.00;;;9.00;99.90;;;;;;5024844;28;20757;-75
2023/12/29 03:27:15;;;;;;;8.77;7.53;;;8.90;99.90;;;;;;5025024;28;20529;-75
2023/12/29 03:29:42;;;;;;;8.68;7.25;;;8.90;99.90;;;;;;5031907;28;20040;-75
2023/12/29 03:32:09;;;;;;;7.75;6.57;;;8.90;99.90;;;;;;5028599;28;20388;-75
2023/12/29 03:34:36;;;;;;;11.25;7.63;;;8.80;99.90;;;;;;5040178;28;20703;-76
2023/12/29 03:37:03;;;;;;;12.65;6.85;;;8.70;99.90;;;;;;5032805;28;20623;-76
2023/12/29 03:39:30;;;;;;;6.20;5.60;;;8.60;99.90;;;;;;5017754;28;20545;-75
2023/12/29 03:41:57;;;;;;;8.18;5.07;;;8.60;99.90;;;;;;5034762;28;20041;-74
2023/12/29 03:44:24;;;;;;;6.35;4.93;;;8.60;99.90;;;;;;5041959;28;20111;-76
2023/12/29 03:46:51;;;;;;;7.43;4.88;;;8.50;99.90;;;;;;5033634;28;20040;-76
2023/12/29 03:49:19;;;;;;;9.05;4.70;;;8.40;99.90;;;;;;5042111;28;20052;-77
2023/12/29 03:51:46;;;;;;;6.32;4.80;;;8.40;99.90;;;;;;5012924;28;20140;-77
2023/12/29 03:54:14;;;;;;;8.68;4.82;;;8.40;99.90;;;;;;5021330;28;20504;-76
2023/12/29 03:56:41;;;;;;;10.88;5.50;;;8.30;99.90;;;;;;5013776;28;20053;-74
2023/12/29 03:59:09;;;;;;;9.70;4.63;;;8.40;99.90;;;;;;5036609;28;20055;-76
2023/12/29 04:01:36;;;;;;;5.07;3.83;;;8.40;99.90;;;;;;5034797;28;20080;-75
2023/12/29 04:04:02;;;;;;;7.45;4.60;;;8.30;99.90;;;;;;5030079;28;20126;-76
2023/12/29 04:06:29;;;;;;;9.82;3.78;;;8.30;99.90;;;;;;5031378;28;20433;-75
2023/12/29 04:08:56;;;;;;;9.07;4.40;;;8.20;99.90;;;;;;5038668;28;20478;-76
2023/12/29 04:11:23;;;;;;;11.85;4.82;;;8.20;99.90;;;;;;5031235;28;20102;-75
2023/12/29 04:13:50;;;;;;;6.43;2.92;;;8.20;99.90;;;;;;5008227;28;20053;-74
2023/12/29 04:16:17;;;;;;;6.55;4.55;;;8.20;99.90;;;;;;5032119;28;20037;-77
2023/12/29 04:18:44;;;;;;;7.60;3.85;;;8.20;99.90;;;;;;5037268;28;20045;-76
2023/12/29 04:21:15;;;;;;;7.03;3.80;;;8.20;99.90;;;;;;5033136;28;20064;-75
2023/12/29 04:23:42;;;;;;;8.50;4.30;;;8.30;99.90;;;;;;5018469;28;20208;-76
2023/12/29 04:26:08;;;;;;;4.97;3.70;;;8.30;99.90;;;;;;5020220;28;20616;-74
2023/12/29 04:28:36;;;;;;;8.10;4.40;;;8.30;99.90;;;;;;5031088;28;20127;-75
2023/12/29 04:31:03;;;;;;;6.90;3.35;;;8.30;99.90;;;;;;5026625;28;20029;-76
2023/12/29 04:33:30;;;;;;;4.82;3.08;;;8.20;99.90;;;;;;5022037;28;21450;-75
2023/12/29 04:35:57;;;;;;;4.32;3.47;;;8.20;99.90;;;;;;5031535;28;20041;-76
2023/12/29 04:38:24;;;;;;;5.85;3.35;;;8.20;99.90;;;;;;5036896;28;20073;-75
2023/12/29 04:40:51;;;;;;;7.65;3.33;;;8.20;99.90;;;;;;5018848;28;20084;-76
2023/12/29 04:43:18;;;;;;;6.03;3.50;;;8.20;99.90;;;;;;5014617;28;20107;-75
2023/12/29 04:45:45;;;;;;;5.28;2.83;;;8.20;99.90;;;;;;4996085;28;20100;-76
2023/12/29 04:48:12;;;;;;;6.68;2.92;;;8.20;99.90;;;;;;5027464;28;20037;-75
2023/12/29 04:50:39;;;;;;;7.07;3.00;;;8.20;99.90;;;;;;5039497;28;20098;-75
2023/12/29 04:53:05;;;;;;;4.63;3.13;;;8.20;99.90;;;;;;5037215;28;20040;-75
2023/12/29 04:55:32;;;;;;;3.47;2.90;;;8.20;99.90;;;;;;5029275;28;20045;-75
2023/12/29 04:57:59;;;;;;;4.38;3.10;;;8.30;99.90;;;;;;5027823;28;20110;-75
2023/12/29 05:00:26;;;;;;;4.50;2.85;;;8.30;99.90;;;;;;5037205;28;20057;-75
2023/12/29 05:02:53;;;;;;;3.58;2.40;;;8.30;99.90;;;;;;5036224;28;20076;-74
2023/12/29 05:05:19;;;;;;;3.55;2.97;;;8.30;99.90;;;;;;5035826;28;20061;-75
2023/12/29 05:07:46;;;;;;;5.30;3.03;;;8.40;99.90;;;;;;5049364;28;20086;-74
2023/12/29 05:10:13;;;;;;;5.72;2.72;;;8.40;99.90;;;;;;5031752;28;20045;-74
2023/12/29 05:12:40;;;;;;;4.95;2.60;;;8.30;99.90;;;;;;5019405;28;20064;-75
2023/12/29 05:15:07;;;;;;;6.57;2.85;;;8.30;99.90;;;;;;5026847;28;20041;-75
2023/12/29 05:17:34;;;;;;;6.30;2.58;;;8.30;99.90;;;;;;5034518;28;20131;-75
2023/12/29 05:20:01;;;;;;;5.20;2.65;;;8.40;99.90;;;;;;5035182;28;20130;-74
2023/12/29 05:22:27;;;;;;;5.15;3.17;;;8.40;99.90;;;;;;5018597;28;20459;-75
2023/12/29 05:24:57;;;;;;;3.35;2.88;;;8.40;99.90;;;;;;5036941;28;20054;-76
2023/12/29 05:27:24;;;;;;;5.63;3.08;;;8.40;99.90;;;;;;5000407;28;20061;-76
2023/12/29 05:29:51;;;;;;;3.38;2.92;;;8.50;99.90;;;;;;5046215;28;20123;-75
2023/12/29 05:32:18;;;;;;;6.43;3.25;;;8.50;99.90;;;;;;5056020;28;20045;-74
2023/12/29 05:34:44;;;;;;;8.23;4.38;;;8.50;99.90;;;;;;5054307;28;20053;-76
2023/12/29 05:37:11;;;;;;;5.90;4.07;;;8.60;99.90;;;;;;5036539;28;20041;-75
2023/12/29 05:39:42;;;;;;;6.85;4.15;;;8.60;99.90;;;;;;5031115;28;20503;-75
2023/12/29 05:42:09;;;;;;;9.15;5.03;;;8.60;99.90;;;;;;5039927;28;20053;-76
2023/12/29 05:44:38;;;;;;;6.25;4.60;;;8.60;99.90;;;;;;5044903;28;20037;-76
2023/12/29 05:47:05;;;;;;;8.00;4.38;;;8.60;99.90;;;;;;5009509;28;20033;-73
2023/12/29 05:49:37;;;;;;;6.63;4.85;;;8.70;99.90;;;;;;5039708;28;20052;-75
2023/12/29 05:52:08;;;;;;;6.10;5.60;;;8.70;99.90;;;;;;5034335;28;20735;-75
2023/12/29 05:54:35;;;;;;;5.55;5.13;;;8.80;99.90;;;;;;5038611;28;20036;-76
2023/12/29 05:57:02;;;;;;;12.20;6.13;;;8.80;99.90;;;;;;5032874;28;20054;-76
2023/12/29 05:59:29;;;;;;;7.90;5.85;;;8.80;99.90;;;;;;5036964;28;20391;-76
2023/12/29 06:01:56;;;;;;;8.82;6.35;;;8.90;99.90;;;;;;5036126;28;20049;-77
2023/12/29 06:04:23;;;;;;;6.45;5.85;;;9.00;99.90;;;;;;5032331;28;20053;-76
2023/12/29 06:06:50;;;;;;;6.75;6.18;;;9.00;99.90;;;;;;5035207;28;20057;-77
2023/12/29 06:09:18;;;;;;;7.13;6.40;;;9.10;99.90;;;;;;5038995;28;20119;-76
2023/12/29 06:11:45;;;;;;;10.27;6.68;;;9.10;99.90;;;;;;5038860;28;20041;-76
2023/12/29 06:14:12;;;;;;;7.18;6.63;;;9.10;99.90;;;;;;5031066;28;20488;-77
2023/12/29 06:16:38;;;;;;;7.75;6.95;;;9.10;99.90;;;;;;5031971;28;20239;-77
2023/12/29 06:19:06;;;;;;;8.95;6.95;;;9.20;99.90;;;;;;5036370;28;20051;-75
2023/12/29 06:21:33;;;;;;;7.25;6.75;;;9.20;99.90;;;;;;5034703;28;20888;-76
2023/12/29 06:24:00;;;;;;;7.93;7.13;;;9.20;99.90;;;;;;5034158;28;20056;-77
2023/12/29 06:26:26;;;;;;;8.52;7.20;;;9.20;99.90;;;;;;5029986;28;20719;-76
2023/12/29 06:28:53;;;;;;;9.27;7.40;;;9.20;99.90;;;;;;5038302;28;20044;-76
2023/12/29 06:31:20;;;;;;;8.82;7.63;;;9.20;99.90;;;;;;5034791;28;20059;-76
2023/12/29 06:33:47;;;;;;;10.05;8.85;;;9.10;99.90;;;;;;5042579;28;20041;-77
2023/12/29 06:36:14;;;;;;;8.38;7.68;;;9.20;99.90;;;;;;5041726;28;20410;-76
2023/12/29 06:38:41;;;;;;;10.90;8.15;;;9.20;99.90;;;;;;5038382;28;20049;-76
2023/12/29 06:41:08;;;;;;;8.65;7.85;;;9.20;99.90;;;;;;5035208;28;20041;-75
2023/12/29 06:43:35;;;;;;;8.95;8.07;;;9.20;99.90;;;;;;5038720;28;20083;-76
2023/12/29 06:46:02;;;;;;;8.32;7.82;;;9.10;99.90;;;;;;5042545;28;20045;-75
2023/12/29 06:48:29;;;;;;;9.38;8.52;;;9.10;99.90;;;;;;5043704;28;20046;-76
2023/12/29 06:50:56;;;;;;;8.45;7.70;;;9.10;99.90;;;;;;5042716;28;20041;-76
2023/12/29 06:53:23;;;;;;;9.93;8.52;;;9.10;99.90;;;;;;5045998;28;20056;-76
2023/12/29 06:55:50;;;;;;;9.40;8.70;;;9.00;99.90;;;;;;5033814;28;20309;-76
2023/12/29 06:58:17;;;;;;;9.57;8.63;;;9.00;99.90;;;;;;5042055;28;20051;-76
2023/12/29 07:00:44;;;;;;;13.25;10.13;;;9.10;99.90;;;;;;5049498;28;20083;-76
2023/12/29 07:03:15;;;;;;;10.43;9.63;;;9.10;99.90;;;;;;5046433;28;20060;-75
2023/12/29 07:05:42;;;;;;;10.52;9.73;;;9.20;99.90;;;;;;5040747;28;20051;-76
2023/12/29 07:08:13;;;;;;;14.25;10.20;;;9.30;99.90;;;;;;5040558;28;20106;-75
2023/12/29 07:10:40;;;;;;;12.80;11.60;;;9.30;99.90;;;;;;5014365;28;20045;-77
2023/12/29 07:13:06;;;;;;;12.48;11.43;;;9.30;99.90;;;;;;5011756;28;20046;-75
2023/12/29 07:15:34;;;;;;;13.05;12.15;;;9.30;99.90;;;;;;5029845;28;20099;-75
2023/12/29 07:18:00;;;;;;;13.13;11.98;;;9.30;99.90;;;;;;5027128;28;20050;-75
2023/12/29 07:20:28;;;;;;;16.00;12.45;;;9.40;99.90;;;;;;5031385;28;20144;-74
2023/12/29 07:22:55;;;;;;;12.75;11.88;;;9.40;99.90;;;;;;5032641;28;20056;-75
2023/12/29 07:25:21;;;;;;;13.60;12.82;;;9.50;99.90;;;;;;5028802;28;20666;-76
2023/12/29 07:27:48;;;;;;;15.02;13.82;;;9.50;99.90;;;;;;5024218;28;20527;-76
2023/12/29 07:30:16;;;;;;;15.75;14.07;;;9.50;99.90;;;;;;5040714;28;20045;-76
2023/12/29 07:32:43;;;;;;;14.43;13.23;;;9.50;99.90;;;;;;5044105;28;20684;-75
2023/12/29 07:35:10;;;;;;;15.85;14.75;;;9.50;99.90;;;;;;5023698;28;20041;-76
2023/12/29 07:37:37;;;;;;;14.10;13.25;;;9.50;99.90;;;;;;5039019;28;20044;-77
2023/12/29 07:40:04;;;;;;;15.43;14.38;;;9.50;99.90;;;;;;5035351;28;20037;-77
2023/12/29 07:42:32;;;;;;;14.57;13.43;;;9.50;99.90;;;;;;5016558;28;20053;-76
2023/12/29 07:44:59;;;;;;;15.13;13.93;;;9.50;99.90;;;;;;5040946;28;20040;-77
2023/12/29 07:47:26;;;;;;;15.23;13.82;;;9.50;99.90;;;;;;5032956;28;20044;-75
2023/12/29 07:49:53;;;;;;;16.75;15.45;;;9.50;99.90;;;;;;5041594;28;20788;-76
2023/12/29 07:52:19;;;;;;;16.83;15.55;;;9.60;99.90;;;;;;5035877;28;20136;-75
2023/12/29 07:54:46;;;;;;;15.82;14.75;;;9.50;99.90;;;;;;5037113;28;20683;-76
2023/12/29 07:57:13;;;;;;;24.10;16.58;;;9.60;99.90;;;;;;5034309;28;20665;-75
2023/12/29 07:59:40;;;;;;;17.25;15.80;;;9.60;99.90;;;;;;5039444;28;20164;-76
2023/12/29 08:02:07;;;;;;;15.52;14.07;;;9.60;99.90;;;;;;5034506;28;20041;-76
2023/12/29 08:04:34;;;;;;;14.95;13.95;;;9.60;99.90;;;;;;5032403;28;20045;-77
2023/12/29 08:07:00;;;;;;;15.45;14.40;;;9.60;99.90;;;;;;5046499;28;20069;-75
2023/12/29 08:09:27;;;;;;;15.07;14.00;;;9.60;99.90;;;;;;5032459;28;20037;-77
2023/12/29 08:11:54;;;;;;;17.42;16.23;;;9.60;99.90;;;;;;5025872;28;20067;-77
2023/12/29 08:14:22;;;;;;;15.52;14.32;;;9.60;99.90;;;;;;5027011;28;20056;-77
2023/12/29 08:16:48;;;;;;;16.80;15.25;;;9.60;99.90;;;;;;5041878;28;20077;-77
2023/12/29 08:19:16;;;;;;;15.93;14.65;;;9.70;99.90;;;;;;5033174;28;20102;-77
2023/12/29 08:21:43;;;;;;;16.85;15.38;;;9.70;99.90;;;;;;5009059;28;20143;-77
2023/12/29 08:24:10;;;;;;;16.90;14.90;;;9.60;99.90;;;;;;5016687;28;20060;-76
2023/12/29 08:26:45;;;;;;;15.45;14.02;;;9.60;99.90;;;;;;5010135;28;20052;-77
2023/12/29 08:29:12;;;;;;;15.23;14.10;;;9.50;99.90;;;;;;5035864;28;20450;-77
2023/12/29 08:31:39;;;;;;;16.10;14.40;;;9.50;99.90;;;;;;5024444;28;20045;-77
2023/12/29 08:34:06;;;;;;;15.95;14.63;;;9.30;99.90;;;;;;5035576;28;20045;-78
2023/12/29 08:36:33;;;;;;;14.80;13.35;;;9.30;99.90;;;;;;5025741;28;20064;-78
2023/12/29 08:39:00;;;;;;;14.27;13.07;;;9.30;99.90;;;;;;5032544;28;20056;-77
2023/12/29 08:41:26;;;;;;;14.45;12.98;;;9.20;99.90;;;;;;5032303;28;20057;-77
2023/12/29 08:43:53;;;;;;;16.40;13.48;;;9.20;99.90;;;;;;5029353;28;20046;-78
2023/12/29 08:46:20;;;;;;;15.82;12.57;;;9.10;99.90;;;;;;5033726;28;20049;-76
2023/12/29 08:48:47;;;;;;;20.67;15.15;;;9.10;99.90;;;;;;5038652;28;20074;-78
2023/12/29 08:51:14;;;;;;;15.10;12.02;;;9.00;99.90;;;;;;5041167;28;20049;-77
2023/12/29 08:53:41;;;;;;;11.85;10.75;;;9.00;99.90;;;;;;5016001;28;20056;-78
2023/12/29 08:56:08;;;;;;;10.90;9.43;;;9.00;99.90;;;;;;5011212;28;20046;-78
2023/12/29 08:58:34;;;;;;;11.07;8.13;;;8.90;99.90;;;;;;5037091;28;20053;-78
2023/12/29 09:01:01;;;;;;;15.82;8.05;;;8.90;99.90;;;;;;5035937;28;20395;-78
2023/12/29 09:03:28;;;;;;;7.80;7.20;;;8.90;99.90;;;;;;5031295;28;20622;-78
2023/12/29 09:05:56;;;;;;;8.32;7.53;;;8.90;99.90;;;;;;5034165;28;20044;-79
2023/12/29 09:08:24;;;;;;;8.00;7.30;;;8.80;99.90;;;;;;5021304;28;20071;-78
2023/12/29 09:10:50;;;;;;;8.63;7.78;;;8.80;99.90;;;;;;5035055;28;20037;-77
2023/12/29 09:13:22;;;;;;;6.90;6.30;;;8.70;99.90;;;;;;5065561;28;20030;-77
2023/12/29 09:15:49;;;;;;;9.60;6.07;;;8.70;99.90;;;;;;5060674;28;20048;-77
2023/12/29 09:18:15;;;;;;;11.02;8.13;;;8.70;99.90;;;;;;5043212;28;20045;-77
2023/12/29 09:20:42;;;;;;;7.35;6.85;;;8.70;99.90;;;;;;5032600;28;20037;-75
2023/12/29 09:23:10;;;;;;;7.97;7.18;;;8.70;99.90;;;;;;5033173;28;20462;-77
2023/12/29 09:25:37;;;;;;;8.48;7.72;;;8.70;99.90;;;;;;5021301;28;20100;-76
2023/12/29 09:28:04;;;;;;;7.35;6.72;;;8.70;99.90;;;;;;5039123;28;20040;-75
2023/12/29 09:30:31;;;;;;;8.35;6.07;;;8.70;99.90;;;;;;5014456;28;20111;-77
2023/12/29 09:32:58;;;;;;;9.68;7.28;;;8.70;99.90;;;;;;5023588;28;20131;-77
2023/12/29 09:35:24;;;;;;;7.22;6.63;;;8.80;99.90;;;;;;5017425;28;20045;-76
2023/12/29 09:37:51;;;;;;;9.50;6.57;;;8.80;99.90;;;;;;5047357;28;20037;-76
2023/12/29 09:40:18;;;;;;;8.63;7.65;;;8.80;99.90;;;;;;5035593;28;20056;-77
2023/12/29 09:42:46;;;;;;;7.78;6.93;;;8.90;99.90;;;;;;5043217;28;20140;-77
2023/12/29 09:45:13;;;;;;;9.70;7.10;;;8.90;99.90;;;;;;5055059;28;20074;-76
2023/12/29 09:47:43;;;;;;;11.18;7.82;;;9.00;99.90;;;;;;5044362;28;20146;-76
2023/12/29 09:50:12;;;;;;;7.95;7.22;;;9.00;99.90;;;;;;5053326;28;20045;-78
2023/12/29 09:52:40;;;;;;;8.20;7.53;;;9.00;99.90;;;;;;5034388;28;20041;-76
2023/12/29 09:55:12;;;;;;;9.13;8.55;;;9.00;99.90;;;;;;5021805;28;20338;-77
2023/12/29 09:57:40;;;;;;;8.07;7.57;;;9.00;99.90;;;;;;5028248;28;20045;-77
2023/12/29 10:00:11;;;;;;;7.40;7.00;;;9.00;99.90;;;;;;5043859;28;20041;-78
2023/12/29 10:02:38;;;;;;;8.35;7.68;;;9.00;99.90;;;;;;5015590;28;20485;-77
2023/12/29 10:05:05;;;;;;;9.77;8.77;;;9.00;99.90;;;;;;5028996;28;20642;-76
2023/12/29 10:07:39;;;;;;;8.13;7.72;;;9.00;99.90;;;;;;5014840;28;20075;-77
2023/12/29 10:10:07;;;;;;;9.80;8.55;;;9.10;99.90;;;;;;5036326;28;20052;-77
2023/12/29 10:12:36;;;;;;;9.45;8.85;;;9.10;99.90;;;;;;5015572;28;20053;-76
2023/12/29 10:15:10;;;;;;;8.18;7.88;;;9.10;99.90;;;;;;5036451;28;20505;-77
2023/12/29 10:18:03;;;;;;;9.60;9.10;;;9.10;99.90;;;;;;5033647;28;20041;-77
2023/12/29 10:20:36;;;;;;;9.40;8.90;;;9.10;99.90;;;;;;5030183;28;20053;-77
2023/12/29 10:23:12;;;;;;;9.15;8.70;;;9.10;99.90;;;;;;5022270;28;20041;-78
2023/12/29 10:25:40;;;;;;;9.50;8.90;;;9.10;99.90;;;;;;5032863;28;20131;-77
2023/12/29 10:28:09;;;;;;;8.98;8.57;;;9.10;99.90;;;;;;5027338;28;20049;-77
2023/12/29 10:30:40;;;;;;;9.15;8.75;;;9.00;99.90;;;;;;5019149;28;20033;-76
2023/12/29 10:33:08;;;;;;;8.55;8.18;;;9.00;99.90;;;;;;5047994;28;20439;-78
2023/12/29 10:35:37;;;;;;;9.98;9.50;;;9.10;99.90;;;;;;5037022;28;20511;-76
2023/12/29 10:38:11;;;;;;;9.75;9.35;;;9.10;99.90;;;;;;5030064;28;20040;-77
2023/12/29 10:40:39;;;;;;;9.77;9.30;;;9.20;99.90;;;;;;5029506;28;20052;-76
2023/12/29 10:43:08;;;;;;;9.32;8.82;;;9.20;99.90;;;;;;5029279;28;20045;-77
2023/12/29 10:45:36;;;;;;;11.35;10.65;;;9.20;99.90;;;;;;5040031;28;20873;-77
2023/12/29 10:48:05;;;;;;;9.88;9.48;;;9.20;99.90;;;;;;5032809;28;20131;-77
2023/12/29 10:50:45;;;;;;;9.40;9.00;;;9.20;99.90;;;;;;5034300;28;20438;-78
2023/12/29 10:53:17;;;;;;;10.13;9.73;;;9.20;99.90;;;;;;5039629;28;20603;-77
2023/12/29 10:55:44;;;;;;;11.20;10.80;;;9.20;99.90;;;;;;5024080;28;20477;-78
2023/12/29 10:58:11;;;;;;;12.70;12.02;;;9.30;99.90;;;;;;5039325;28;20056;-78
2023/12/29 11:00:38;;;;;;;13.60;12.90;;;9.40;99.90;;;;;;5028105;28;20057;-77
2023/12/29 11:03:06;;;;;;;12.50;11.98;;;9.40;99.90;;;;;;5036194;28;20047;-76
2023/12/29 11:05:34;;;;;;;12.93;12.40;;;9.40;99.90;;;;;;5043348;28;20041;-77
2023/12/29 11:08:00;;;;;;;14.57;13.77;;;9.40;99.90;;;;;;5027796;28;20076;-77
2023/12/29 11:10:30;;;;;;;14.65;14.15;;;9.50;99.90;;;;;;5034599;28;20651;-78
2023/12/29 11:12:56;;;;;;;13.10;12.60;;;9.50;99.90;;;;;;5025859;28;20103;-78
2023/12/29 11:15:25;;;;;;;11.88;11.38;;;9.50;99.90;;;;;;5033824;28;20056;-77
2023/12/29 11:17:55;;;;;;;12.20;11.70;;;9.50;99.90;;;;;;5031035;28;20044;-78
2023/12/29 11:20:26;;;;;;;12.63;12.02;;;9.40;99.90;;;;;;5039191;28;20124;-77
2023/12/29 11:22:54;;;;;;;15.95;15.25;;;9.40;99.90;;;;;;5027895;28;20040;-78
2023/12/29 11:25:20;;;;;;;13.65;13.10;;;9.40;99.90;;;;;;5025155;28;20045;-77
2023/12/29 11:27:49;;;;;;;13.27;12.77;;;9.50;99.90;;;;;;5039001;28;20942;-76
2023/12/29 11:30:16;;;;;;;13.10;12.60;;;9.50;99.90;;;;;;5027970;28;20046;-77
2023/12/29 11:32:54;;;;;;;13.35;12.55;;;9.50;99.90;;;;;;5033157;28;20121;-77
2023/12/29 11:35:47;;;;;;;12.80;12.30;;;9.50;99.90;;;;;;5036591;28;20053;-77
2023/12/29 11:38:44;;;;;;;12.27;11.77;;;9.40;99.90;;;;;;5033213;28;20107;-77
2023/12/29 11:41:27;;;;;;;13.15;12.52;;;9.40;99.90;;;;;;5035509;28;20280;-79
2023/12/29 11:43:59;;;;;;;13.60;13.10;;;9.40;99.90;;;;;;5010903;28;20718;-77
2023/12/29 11:46:42;;;;;;;15.02;14.38;;;9.40;99.90;;;;;;5038529;28;20049;-77
2023/12/29 11:49:10;;;;;;;15.55;14.85;;;9.50;99.90;;;;;;5064838;28;20068;-76
2023/12/29 11:51:46;;;;;;;15.38;14.75;;;9.50;99.90;;;;;;5017683;28;20040;-76
2023/12/29 11:54:24;;;;;;;15.73;15.02;;;9.50;99.90;;;;;;5009929;28;20057;-77
2023/12/29 11:56:53;;;;;;;14.82;14.13;;;9.50;99.90;;;;;;5038871;28;20041;-78
2023/12/29 11:59:24;;;;;;;14.85;14.15;;;9.50;99.90;;;;;;5044032;28;20476;-78
2023/12/29 12:01:57;;;;;;;15.82;15.02;;;9.50;99.90;;;;;;5035466;28;20503;-76
2023/12/29 12:04:44;;;;;;;16.40;15.50;;;9.50;99.90;;;;;;5041243;28;20112;-76
2023/12/29 12:07:30;;;;;;;16.58;15.77;;;9.50;99.90;;;;;;5038483;28;20590;-75
2023/12/29 12:10:19;;;;;;;17.48;16.58;;;9.60;99.90;;;;;;5009555;28;20517;-77
2023/12/29 12:12:48;;;;;;;15.55;14.85;;;9.70;99.90;;;;;;5007848;28;20609;-77
2023/12/29 12:15:27;;;;;;;18.83;17.83;;;9.70;99.90;;;;;;5015559;28;20107;-77
2023/12/29 12:17:54;;;;;;;15.82;15.13;;;9.80;99.90;;;;;;5013768;28;21651;-78
2023/12/29 12:20:22;;;;;;;16.00;15.30;;;9.90;99.90;;;;;;5043854;28;20045;-78
2023/12/29 12:22:59;;;;;;;16.02;15.30;;;9.90;99.90;;;;;;5035472;28;20038;-77
2023/12/29 12:25:30;;;;;;;16.02;15.20;;;9.90;99.90;;;;;;5029030;28;20884;-79
2023/12/29 12:27:58;;;;;;;15.73;15.13;;;10.00;99.90;;;;;;5036495;28;20333;-78
2023/12/29 12:30:25;;;;;;;17.10;16.20;;;10.00;99.90;;;;;;5035714;28;20152;-76
2023/12/29 12:32:59;;;;;;;15.10;14.45;;;10.00;99.90;;;;;;5039228;28;20131;-76
2023/12/29 12:35:26;;;;;;;;;;;10.10;99.90;;;;;;5038438;28;20045;-75
2023/12/29 12:38:13;;;;;;;15.23;14.18;;;10.00;99.90;;;;;;5030507;28;19924;-76
2023/12/29 12:40:40;;;;;;;9.05;8.55;;;9.80;99.90;;;;;;5029784;28;20037;-77
2023/12/29 12:43:07;;;;;;;7.07;6.57;;;9.50;99.90;;;;;;5011282;28;20044;-75
2023/12/29 12:45:42;;;;;;;6.03;5.47;;;9.30;99.90;;;;;;5015894;28;20514;-75
2023/12/29 12:48:35;;;;;;;5.60;5.28;;;9.20;99.90;;;;;;5027238;28;20050;-75
2023/12/29 12:51:03;;;;;;;4.93;4.57;;;9.20;99.90;;;;;;5053437;28;20320;-74
2023/12/29 12:53:30;;;;;;;6.85;4.97;;;9.20;99.90;;;;;;5060261;28;20044;-74